Time;durP1;ratioP1;P1;durP2;ratioP2;P2;SDS_P1;SDS_P2;PMS_P1;PMS_P2;Temp;Humidity;BMP_temperature;BMP_pressure;BME280_temperature;BME280_humidity;BME280_pressure;Samples;Min_cycle;Max_cycle;Signal;HPM_P1;HPM_P2
2024/02/20 00:01:31;;;;;;;14.43;9.65;;;;;;;6.25;100.00;101319.91;4991318;28;20630;-67
2024/02/20 00:03:56;;;;;;;10.98;6.45;;;;;;;6.31;100.00;101317.78;4990906;28;20557;-67
2024/02/20 00:06:22;;;;;;;9.40;5.72;;;;;;;6.34;100.00;101311.97;4991238;28;20019;-69
2024/02/20 00:08:47;;;;;;;9.70;5.68;;;;;;;6.28;100.00;101322.66;4991940;28;20060;-67
2024/02/20 00:11:13;;;;;;;8.13;5.07;;;;;;;6.04;100.00;101316.78;4991296;28;20525;-70
2024/02/20 00:13:38;;;;;;;7.70;4.68;;;;;;;5.96;100.00;101309.41;4990806;28;20097;-67
2024/02/20 00:16:06;;;;;;;6.93;4.68;;;;;;;5.86;100.00;101311.22;4993710;28;20046;-67
2024/02/20 00:18:32;;;;;;;10.18;5.30;;;;;;;5.79;100.00;101309.91;4999308;28;20197;-67
2024/02/20 00:20:58;;;;;;;10.77;5.43;;;;;;;5.32;100.00;101229.84;4997930;28;20049;-66
2024/02/20 00:23:25;;;;;;;10.55;5.32;;;;;;;5.65;100.00;101286.78;4994986;28;20038;-70
2024/02/20 00:25:52;;;;;;;10.30;5.20;;;;;;;5.72;100.00;101300.00;4985329;28;20050;-71
2024/02/20 00:28:18;;;;;;;10.32;5.25;;;;;;;5.79;100.00;101307.34;4994648;28;20030;-70
2024/02/20 00:30:44;;;;;;;7.78;5.18;;;;;;;5.79;100.00;101310.78;4998311;28;20034;-69
2024/02/20 00:33:11;;;;;;;8.27;4.85;;;;;;;5.74;100.00;101301.00;5000086;28;20034;-70
2024/02/20 00:35:38;;;;;;;7.75;4.55;;;;;;;5.70;100.00;101305.03;4995751;28;20051;-70
2024/02/20 00:38:04;;;;;;;8.52;4.80;;;;;;;5.75;100.00;101297.69;5006378;28;20087;-70
2024/02/20 00:40:29;;;;;;;11.27;5.95;;;;;;;5.77;100.00;101301.22;4998086;28;20092;-71
2024/02/20 00:42:55;;;;;;;10.48;6.57;;;;;;;5.69;100.00;101271.63;4998542;28;20132;-70
2024/02/20 00:45:21;;;;;;;10.18;6.70;;;;;;;5.47;100.00;101232.59;4995616;28;20042;-69
2024/02/20 00:47:46;;;;;;;15.60;7.43;;;;;;;5.81;100.00;101278.47;5002061;28;20531;-71
2024/02/20 00:50:12;;;;;;;13.45;7.07;;;;;;;5.69;100.00;101263.94;4990445;28;20121;-70
2024/02/20 00:52:37;;;;;;;11.75;6.07;;;;;;;5.82;100.00;101292.19;4988126;28;20042;-70
2024/02/20 00:55:04;;;;;;;7.68;4.80;;;;;;;5.82;100.00;101292.19;4982017;28;20399;-70
2024/02/20 00:57:30;;;;;;;10.57;6.90;;;;;;;5.87;100.00;101284.81;4958302;28;20042;-70
2024/02/20 00:59:55;;;;;;;9.00;5.78;;;;;;;5.50;100.00;101220.00;4990148;28;20038;-73
2024/02/20 01:02:21;;;;;;;12.70;7.00;;;;;;;6.04;100.00;101286.00;4990323;28;20136;-69
2024/02/20 01:04:47;;;;;;;9.75;4.97;;;;;;;5.92;100.00;101227.97;4990962;28;20069;-68
2024/02/20 01:07:13;;;;;;;9.95;5.28;;;;;;;6.15;100.00;101244.91;4989941;28;20459;-70
2024/02/20 01:09:38;;;;;;;9.57;6.13;;;;;;;6.38;100.00;101275.47;4989727;28;20034;-70
2024/02/20 01:12:05;;;;;;;9.98;5.72;;;;;;;6.22;100.00;101283.78;4989822;28;20042;-70
2024/02/20 01:14:30;;;;;;;10.00;5.90;;;;;;;6.20;100.00;101296.50;4990084;28;20023;-69
2024/02/20 01:16:56;;;;;;;10.38;6.53;;;;;;;6.11;100.00;101258.31;4986912;28;20316;-71
2024/02/20 01:19:22;;;;;;;9.52;6.30;;;;;;;6.26;100.00;101265.28;4988468;28;20030;-70
2024/02/20 01:21:47;;;;;;;10.25;6.55;;;;;;;6.27;100.00;101267.94;4989751;28;20634;-70
2024/02/20 01:24:13;;;;;;;12.15;6.90;;;;;;;6.48;100.00;101280.44;4989902;28;20035;-71
2024/02/20 01:26:42;;;;;;;12.48;7.13;;;;;;;6.49;100.00;101274.50;4990094;28;20509;-70
2024/02/20 01:29:08;;;;;;;10.25;6.50;;;;;;;6.26;100.00;101260.16;4982407;28;20104;-69
2024/02/20 01:31:34;;;;;;;11.35;7.07;;;;;;;6.05;100.00;101229.72;4989381;28;20040;-71
2024/02/20 01:34:00;;;;;;;13.80;7.20;;;;;;;6.28;100.00;101274.84;4989740;28;20042;-70
2024/02/20 01:36:26;;;;;;;10.57;7.13;;;;;;;6.22;100.00;101266.75;4990344;28;20026;-71
2024/02/20 01:38:51;;;;;;;11.32;6.97;;;;;;;6.19;100.00;101255.41;4989587;28;20509;-73
2024/02/20 01:41:18;;;;;;;10.18;6.72;;;;;;;6.22;100.00;101253.94;4989709;28;20039;-71
2024/02/20 01:43:45;;;;;;;8.70;6.13;;;;;;;6.41;100.00;101275.69;4989669;28;20477;-71
2024/02/20 01:46:18;;;;;;;10.07;6.85;;;;;;;6.53;100.00;101276.50;4989379;28;20121;-72
2024/02/20 01:48:44;;;;;;;10.88;6.60;;;;;;;6.52;100.00;101268.69;4989757;28;20040;-71
2024/02/20 01:51:09;;;;;;;17.20;9.75;;;;;;;6.26;100.00;101252.47;4989777;28;20116;-72
2024/02/20 01:53:35;;;;;;;10.13;7.35;;;;;;;6.28;100.00;101266.25;4989406;28;20092;-70
2024/02/20 01:56:06;;;;;;;10.75;7.45;;;;;;;5.45;100.00;101131.72;4989460;28;20034;-71
2024/02/20 01:58:32;;;;;;;14.23;8.48;;;;;;;6.24;100.00;101260.06;4987979;28;20054;-69
2024/02/20 02:00:57;;;;;;;16.23;9.45;;;;;;;6.04;100.00;101229.63;4990116;28;20442;-71
2024/02/20 02:03:23;;;;;;;16.83;10.05;;;;;;;6.20;100.00;101246.94;4989091;28;20034;-70
2024/02/20 02:05:49;;;;;;;13.65;7.50;;;;;;;6.27;100.00;101254.25;4981718;28;20413;-71
2024/02/20 02:08:16;;;;;;;26.13;7.55;;;;;;;5.89;100.00;101189.31;4988960;28;20045;-74
2024/02/20 02:10:42;;;;;;;10.55;7.72;;;;;;;6.16;100.00;101253.53;4989590;28;20035;-69
2024/02/20 02:13:07;;;;;;;15.25;8.45;;;;;;;5.96;100.00;101224.81;4989212;28;20482;-71
2024/02/20 02:15:33;;;;;;;13.77;8.25;;;;;;;6.07;100.00;101253.78;4989247;28;20085;-74
2024/02/20 02:17:58;;;;;;;15.38;8.73;;;;;;;5.93;100.00;101223.72;4989112;28;20082;-71
2024/02/20 02:20:24;;;;;;;15.50;8.38;;;;;;;6.01;100.00;101230.31;4989466;28;20033;-69
2024/02/20 02:22:49;;;;;;;14.00;7.65;;;;;;;6.19;100.00;101248.59;4989531;28;20044;-72
2024/02/20 02:25:16;;;;;;;13.55;8.02;;;;;;;6.19;100.00;101247.72;4997040;28;20034;-70
2024/02/20 02:27:42;;;;;;;12.70;8.23;;;;;;;6.17;100.00;101246.69;4989306;28;20030;-70
2024/02/20 02:30:09;;;;;;;15.00;8.98;;;;;;;6.18;100.00;101251.97;4985618;28;20026;-71
2024/02/20 02:32:35;;;;;;;14.20;8.07;;;;;;;6.04;100.00;101221.94;4989143;28;20038;-70
2024/02/20 02:35:01;;;;;;;11.52;7.18;;;;;;;6.09;100.00;101239.41;4988562;28;20049;-71
2024/02/20 02:37:27;;;;;;;9.40;6.50;;;;;;;6.09;100.00;101246.19;4990010;28;20034;-71
2024/02/20 02:39:53;;;;;;;13.23;7.20;;;;;;;6.04;100.00;101257.81;4989357;28;20482;-71
2024/02/20 02:42:19;;;;;;;13.27;7.55;;;;;;;6.06;100.00;101246.88;4989180;28;20506;-70
2024/02/20 02:44:46;;;;;;;9.73;6.40;;;;;;;5.90;100.00;101224.41;4991328;28;20061;-70
2024/02/20 02:47:12;;;;;;;9.23;5.80;;;;;;;6.11;100.00;101242.94;4992720;28;20034;-71
2024/02/20 02:49:38;;;;;;;9.90;6.30;;;;;;;5.61;100.00;101171.19;4992506;28;20034;-70
2024/02/20 02:52:04;;;;;;;10.40;6.90;;;;;;;5.92;100.00;101237.31;4992866;28;20026;-71
2024/02/20 02:54:30;;;;;;;10.02;6.68;;;;;;;5.93;100.00;101231.41;4992532;28;20038;-72
2024/02/20 02:56:57;;;;;;;10.00;6.78;;;;;;;6.07;100.00;101233.28;4992397;28;20026;-70
2024/02/20 02:59:22;;;;;;;9.63;6.38;;;;;;;6.10;100.00;101243.72;4992130;28;20104;-73
2024/02/20 03:01:49;;;;;;;9.80;5.75;;;;;;;6.12;100.00;101252.41;4993215;28;20034;-74
2024/02/20 03:04:14;;;;;;;10.85;7.07;;;;;;;6.08;100.00;101227.38;4988450;28;20076;-70
2024/02/20 03:06:40;;;;;;;9.60;5.65;;;;;;;6.05;100.00;101219.47;4992618;28;20030;-71
2024/02/20 03:09:12;;;;;;;9.68;6.03;;;;;;;6.11;100.00;101250.63;4992591;28;20058;-70
2024/02/20 03:11:42;;;;;;;11.75;6.05;;;;;;;6.14;100.00;101252.50;4992985;28;20140;-70
2024/02/20 03:14:09;;;;;;;10.30;6.13;;;;;;;5.93;100.00;101222.06;4962706;28;20111;-69
2024/02/20 03:16:34;;;;;;;10.30;5.50;;;;;;;5.38;100.00;101137.19;4991995;28;20054;-70
2024/02/20 03:19:01;;;;;;;9.93;6.10;;;;;;;5.53;100.00;101186.00;4977844;28;20054;-71
2024/02/20 03:21:27;;;;;;;9.27;6.10;;;;;;;5.75;100.00;101246.44;4991889;28;20129;-69
2024/02/20 03:23:53;;;;;;;9.63;6.25;;;;;;;5.72;100.00;101248.75;4992138;28;20495;-69
2024/02/20 03:26:19;;;;;;;11.15;5.97;;;;;;;5.32;100.00;101219.63;4992353;28;20037;-70
2024/02/20 03:28:45;;;;;;;10.38;5.50;;;;;;;5.52;100.00;101261.09;4992206;28;20042;-69
2024/02/20 03:31:11;;;;;;;10.07;5.97;;;;;;;5.26;100.00;101218.28;4991730;28;20022;-70
2024/02/20 03:33:37;;;;;;;9.77;5.90;;;;;;;5.46;100.00;101258.09;4991878;28;20029;-69
2024/02/20 03:36:03;;;;;;;8.57;5.82;;;;;;;5.50;100.00;101262.66;4992761;28;20053;-70
2024/02/20 03:38:28;;;;;;;9.20;6.30;;;;;;;5.42;100.00;101246.75;4991610;28;20493;-70
2024/02/20 03:40:54;;;;;;;11.73;6.10;;;;;;;5.61;100.00;101261.72;4978666;28;20049;-70
2024/02/20 03:43:20;;;;;;;9.75;5.68;;;;;;;5.61;100.00;101265.97;4989647;28;20476;-69
2024/02/20 03:45:46;;;;;;;11.27;5.82;;;;;;;5.62;100.00;101260.94;4989262;28;20038;-70
2024/02/20 03:48:12;;;;;;;10.93;6.03;;;;;;;5.10;100.00;101167.69;4991899;28;20109;-69
2024/02/20 03:50:37;;;;;;;10.40;6.00;;;;;;;5.61;100.00;101256.59;4979757;28;20034;-69
2024/02/20 03:53:04;;;;;;;10.00;6.60;;;;;;;5.35;100.00;101207.00;4991724;28;20030;-69
2024/02/20 03:55:30;;;;;;;9.95;5.97;;;;;;;5.64;100.00;101251.69;4990795;28;20049;-70
2024/02/20 03:57:56;;;;;;;9.27;5.78;;;;;;;5.59;100.00;101247.03;4991327;28;20034;-69
2024/02/20 04:00:24;;;;;;;11.80;6.40;;;;;;;5.74;100.00;101260.91;4991582;28;20123;-70
2024/02/20 04:02:50;;;;;;;10.65;5.95;;;;;;;5.90;100.00;101257.72;4991171;28;20030;-69
2024/02/20 04:05:16;;;;;;;9.65;6.25;;;;;;;6.08;100.00;101264.91;4991221;28;20061;-70
2024/02/20 04:07:44;;;;;;;11.75;5.93;;;;;;;6.17;100.00;101264.66;4991150;28;20563;-69
2024/02/20 04:10:12;;;;;;;11.20;6.38;;;;;;;6.04;100.00;101237.31;4979366;28;20388;-70
2024/02/20 04:12:39;;;;;;;8.60;5.40;;;;;;;6.25;100.00;101258.38;4991324;28;20058;-69
2024/02/20 04:15:05;;;;;;;10.20;6.35;;;;;;;6.36;100.00;101274.50;4990598;28;20026;-69
2024/02/20 04:17:31;;;;;;;10.82;5.95;;;;;;;6.40;100.00;101264.50;4988868;28;20054;-69
2024/02/20 04:19:58;;;;;;;8.88;5.40;;;;;;;6.46;100.00;101267.47;4990964;28;20042;-69
2024/02/20 04:22:23;;;;;;;8.75;5.68;;;;;;;6.52;100.00;101269.59;4990628;28;20065;-70
2024/02/20 04:24:49;;;;;;;10.07;5.50;;;;;;;6.35;100.00;101239.38;4990986;28;20463;-69
2024/02/20 04:27:14;;;;;;;19.27;5.97;;;;;;;6.39;100.00;101261.84;4990825;28;20034;-69
2024/02/20 04:29:42;;;;;;;8.88;5.15;;;;;;;6.41;100.00;101270.56;4990740;28;20113;-69
2024/02/20 04:32:07;;;;;;;10.05;6.35;;;;;;;6.32;100.00;101270.81;4990863;28;20038;-73
2024/02/20 04:34:33;;;;;;;7.60;5.07;;;;;;;6.18;100.00;101251.97;4990851;28;20038;-71
2024/02/20 04:36:58;;;;;;;7.32;5.45;;;;;;;6.20;100.00;101259.75;4990836;28;20026;-70
2024/02/20 04:39:24;;;;;;;9.63;5.78;;;;;;;6.22;100.00;101266.75;4990461;28;20110;-71
2024/02/20 04:41:49;;;;;;;8.40;5.38;;;;;;;6.24;100.00;101262.63;4991693;28;20066;-71
2024/02/20 04:44:14;;;;;;;8.85;5.43;;;;;;;6.22;100.00;101273.53;4990458;28;20110;-71
2024/02/20 04:46:40;;;;;;;8.63;5.20;;;;;;;6.17;100.00;101265.56;4990574;28;20413;-70
2024/02/20 04:49:05;;;;;;;9.90;5.68;;;;;;;6.09;100.00;101257.34;4990470;28;20038;-73
2024/02/20 04:51:32;;;;;;;8.88;5.63;;;;;;;6.17;100.00;101270.69;4990548;28;20076;-74
2024/02/20 04:53:58;;;;;;;10.88;5.32;;;;;;;6.23;100.00;101270.19;4990288;28;20122;-71
2024/02/20 04:56:23;;;;;;;9.75;5.55;;;;;;;6.12;100.00;101264.34;4990113;28;20109;-70
2024/02/20 04:58:49;;;;;;;7.95;5.47;;;;;;;6.07;100.00;101264.03;4989620;28;20023;-70
2024/02/20 05:01:17;;;;;;;9.85;5.35;;;;;;;5.98;100.00;101232.59;4989870;28;20088;-70
2024/02/20 05:03:43;;;;;;;7.95;5.43;;;;;;;6.26;100.00;101266.16;4990427;28;20083;-71
2024/02/20 05:06:11;;;;;;;10.60;5.35;;;;;;;6.36;100.00;101279.63;4986096;28;20472;-71
2024/02/20 05:08:37;;;;;;;8.52;5.00;;;;;;;6.30;100.00;101265.56;4990725;28;20039;-70
2024/02/20 05:11:02;;;;;;;10.27;5.65;;;;;;;6.30;100.00;101257.00;4989798;28;20097;-71
2024/02/20 05:13:28;;;;;;;8.75;5.50;;;;;;;6.43;100.00;101285.25;4989636;28;20033;-69
2024/02/20 05:15:53;;;;;;;9.55;5.15;;;;;;;6.46;100.00;101274.31;4989872;28;20536;-70
2024/02/20 05:18:19;;;;;;;8.80;5.30;;;;;;;6.47;100.00;101274.41;4990042;28;20038;-71
2024/02/20 05:20:45;;;;;;;10.25;6.15;;;;;;;6.44;100.00;101260.47;4939422;28;20054;-70
2024/02/20 05:23:10;;;;;;;8.18;5.20;;;;;;;6.44;100.00;101258.81;4989703;28;20030;-71
2024/02/20 05:25:36;;;;;;;9.50;5.78;;;;;;;6.10;100.00;101204.41;4990334;28;20057;-70
2024/02/20 05:28:01;;;;;;;14.63;5.65;;;;;;;6.35;100.00;101247.94;4989262;28;20038;-70
2024/02/20 05:30:27;;;;;;;8.10;5.40;;;;;;;6.55;100.00;101281.72;4989718;28;20120;-70
2024/02/20 05:33:12;;;;;;;10.63;5.80;;;;;;;6.52;100.00;101284.06;4929101;29;20079;-69
2024/02/20 05:35:41;;;;;;;12.77;6.70;;;;;;;6.49;100.00;101292.44;4929519;29;20078;-70
2024/02/20 05:38:06;;;;;;;11.65;7.53;;;;;;;6.24;100.00;101249.81;4926719;29;20107;-71
2024/02/20 05:40:32;;;;;;;12.93;6.50;;;;;;;6.08;100.00;101209.44;4919201;29;20048;-70
2024/02/20 05:42:57;;;;;;;9.23;5.85;;;;;;;6.64;100.00;101298.63;4930000;29;20043;-70
2024/02/20 05:45:23;;;;;;;7.07;5.07;;;;;;;6.59;100.00;101310.25;4929493;29;20519;-70
2024/02/20 05:47:49;;;;;;;9.05;5.15;;;;;;;6.57;100.00;101309.25;4929471;29;20054;-69
2024/02/20 05:50:14;;;;;;;9.20;5.22;;;;;;;6.57;100.00;101313.50;4930356;29;20123;-70
2024/02/20 05:52:40;;;;;;;8.63;5.60;;;;;;;6.57;100.00;101309.25;4929462;29;20071;-69
2024/02/20 05:55:07;;;;;;;10.07;5.10;;;;;;;6.63;100.00;101319.06;4929250;29;20767;-69
2024/02/20 05:57:34;;;;;;;12.88;7.32;;;;;;;6.57;100.00;101321.22;4929424;29;20504;-69
2024/02/20 06:00:00;;;;;;;13.80;8.10;;;;;;;6.46;100.00;101315.34;4929162;29;20503;-69
2024/02/20 06:02:26;;;;;;;16.35;9.35;;;;;;;6.03;100.00;101245.78;4927508;29;20038;-70
2024/02/20 06:04:51;;;;;;;16.35;9.32;;;;;;;6.39;100.00;101319.19;4975563;28;20042;-70
2024/02/20 06:07:20;;;;;;;12.95;9.40;;;;;;;6.36;100.00;101318.09;4938586;28;20054;-69
2024/02/20 06:09:45;;;;;;;14.05;9.50;;;;;;;6.21;100.00;101303.44;4989669;28;20039;-70
2024/02/20 06:12:11;;;;;;;22.80;9.90;;;;;;;6.15;100.00;101297.88;4989162;28;20505;-70
2024/02/20 06:14:37;;;;;;;13.93;8.50;;;;;;;6.24;100.00;101321.59;4989931;28;20042;-70
2024/02/20 06:17:03;;;;;;;14.30;9.23;;;;;;;6.26;100.00;101326.81;4976072;28;20121;-69
2024/02/20 06:19:28;;;;;;;15.93;10.00;;;;;;;6.10;100.00;101289.00;4992880;28;20134;-70
2024/02/20 06:21:54;;;;;;;14.05;9.48;;;;;;;6.19;100.00;101298.97;4993500;28;20034;-70
2024/02/20 06:24:19;;;;;;;13.40;8.85;;;;;;;5.92;100.00;101239.88;4993476;28;20129;-69
2024/02/20 06:26:46;;;;;;;16.90;9.63;;;;;;;6.46;100.00;101325.59;4993588;28;20486;-70
2024/02/20 06:29:12;;;;;;;16.67;9.85;;;;;;;6.48;100.00;101327.50;4989422;28;20056;-70
2024/02/20 06:31:38;;;;;;;17.45;9.10;;;;;;;6.52;100.00;101327.69;4993774;28;20026;-70
2024/02/20 06:34:07;;;;;;;17.13;10.05;;;;;;;6.31;100.00;101295.56;4963782;28;20085;-70
2024/02/20 06:36:32;;;;;;;18.42;10.18;;;;;;;6.61;100.00;101331.75;4993180;28;20026;-70
2024/02/20 06:38:58;;;;;;;15.13;9.52;;;;;;;6.47;100.00;101294.91;4979790;28;20044;-70
2024/02/20 06:41:24;;;;;;;14.60;8.80;;;;;;;6.21;100.00;101258.97;4992546;28;20030;-69
2024/02/20 06:43:50;;;;;;;18.77;8.98;;;;;;;6.58;100.00;101339.25;4992984;28;20038;-70
2024/02/20 06:46:15;;;;;;;17.92;9.88;;;;;;;5.88;100.00;101246.50;4993710;28;20098;-70
2024/02/20 06:48:43;;;;;;;34.35;10.80;;;;;;;6.29;100.00;101343.31;4992942;28;20031;-70
2024/02/20 06:51:10;;;;;;;15.75;9.68;;;;;;;5.77;100.00;101263.69;4992592;28;20031;-70
2024/02/20 06:53:35;;;;;;;15.75;9.30;;;;;;;6.22;100.00;101346.25;4986113;28;20082;-72
2024/02/20 06:56:01;;;;;;;13.50;9.10;;;;;;;6.12;100.00;101346.41;4992678;28;20053;-69
2024/02/20 06:58:27;;;;;;;14.77;9.55;;;;;;;5.95;100.00;101347.75;4993035;28;20122;-69
2024/02/20 07:00:53;;;;;;;16.92;10.48;;;;;;;5.88;100.00;101348.09;4992515;28;20038;-70
2024/02/20 07:03:18;;;;;;;14.82;10.38;;;;;;;5.57;100.00;101310.06;4992604;28;20038;-70
2024/02/20 07:05:44;;;;;;;14.02;10.13;;;;;;;5.72;100.00;101347.03;4992967;28;20030;-70
2024/02/20 07:08:11;;;;;;;15.38;10.40;;;;;;;5.72;100.00;101341.91;4992477;28;20109;-68
2024/02/20 07:10:36;;;;;;;18.95;12.13;;;;;;;5.73;100.00;101338.56;4988661;28;20255;-69
2024/02/20 07:13:02;;;;;;;15.63;10.20;;;;;;;5.77;100.00;101345.69;4991409;28;20117;-70
2024/02/20 07:15:28;;;;;;;30.80;21.95;;;;;;;5.90;100.00;101343.97;4992326;28;20033;-70
2024/02/20 07:17:55;;;;;;;17.77;11.80;;;;;;;5.94;100.00;101338.28;4993449;28;20062;-69
2024/02/20 07:20:22;;;;;;;15.60;10.68;;;;;;;5.91;100.00;101340.63;4992350;28;20096;-71
2024/02/20 07:22:49;;;;;;;13.70;9.43;;;;;;;5.88;100.00;101333.63;4992764;28;20041;-70
2024/02/20 07:25:18;;;;;;;12.57;9.20;;;;;;;5.67;100.00;101308.28;4991174;28;20023;-71
2024/02/20 07:27:43;;;;;;;13.63;8.77;;;;;;;5.72;100.00;101311.16;4992443;28;20038;-70
2024/02/20 07:30:10;;;;;;;14.43;9.13;;;;;;;5.92;100.00;101344.94;4991148;28;20042;-69
2024/02/20 07:32:36;;;;;;;13.07;8.57;;;;;;;6.09;100.00;101341.97;4991948;28;20466;-70
2024/02/20 07:35:01;;;;;;;14.38;8.35;;;;;;;6.09;100.00;101334.25;4991835;28;20042;-70
2024/02/20 07:37:27;;;;;;;14.20;8.00;;;;;;;6.14;100.00;101347.38;4992252;28;20030;-70
2024/02/20 07:39:53;;;;;;;13.55;8.25;;;;;;;6.09;100.00;101336.81;4991638;28;20052;-70
2024/02/20 07:42:18;;;;;;;16.40;11.55;;;;;;;6.27;100.00;101339.75;4992109;28;20030;-73
2024/02/20 07:44:44;;;;;;;14.32;8.82;;;;;;;6.31;100.00;101344.28;4991863;28;20030;-69
2024/02/20 07:47:09;;;;;;;12.40;8.10;;;;;;;6.22;100.00;101343.69;4992556;28;20081;-70
2024/02/20 07:49:36;;;;;;;12.93;7.40;;;;;;;5.69;100.00;101266.50;4991635;28;20035;-69
2024/02/20 07:52:02;;;;;;;12.43;7.45;;;;;;;5.82;100.00;101280.25;4992427;28;20066;-70
2024/02/20 07:54:28;;;;;;;11.55;7.15;;;;;;;6.24;100.00;101341.22;4990921;28;21091;-69
2024/02/20 07:56:54;;;;;;;15.25;8.23;;;;;;;6.37;100.00;101348.06;4989468;28;20098;-72
2024/02/20 07:59:20;;;;;;;15.18;7.95;;;;;;;6.53;100.00;101347.41;4990123;28;20481;-69
2024/02/20 08:01:52;;;;;;;11.98;8.30;;;;;;;6.62;100.00;101343.81;4990628;28;20034;-69
2024/02/20 08:04:22;;;;;;;12.38;8.40;;;;;;;6.74;100.00;101348.88;4988096;28;20061;-68
2024/02/20 08:06:48;;;;;;;14.95;8.75;;;;;;;6.83;100.00;101345.13;4992121;28;20029;-69
2024/02/20 08:09:14;;;;;;;15.23;8.77;;;;;;;6.69;100.00;101313.41;4991602;28;20405;-70
2024/02/20 08:11:40;;;;;;;10.73;7.45;;;;;;;6.79;100.00;101321.84;4990863;28;20038;-69
2024/02/20 08:14:05;;;;;;;18.00;8.95;;;;;;;6.90;100.00;101339.63;4991420;28;20100;-72
2024/02/20 08:16:32;;;;;;;12.88;8.48;;;;;;;6.98;100.00;101346.16;4992272;28;20736;-71
2024/02/20 08:18:58;;;;;;;15.48;8.13;;;;;;;6.97;100.00;101341.81;4991153;28;20066;-70
2024/02/20 08:21:23;;;;;;;14.95;8.48;;;;;;;6.56;100.00;101278.38;4974761;28;20442;-71
2024/02/20 08:23:49;;;;;;;11.70;7.95;;;;;;;7.07;100.00;101353.56;4991807;28;20034;-70
2024/02/20 08:26:15;;;;;;;11.80;8.05;;;;;;;7.08;100.00;101353.66;4989314;28;20030;-71
2024/02/20 08:28:41;;;;;;;11.95;7.05;;;;;;;7.12;100.00;101350.50;4991432;28;20042;-71
2024/02/20 08:31:08;;;;;;;10.27;6.82;;;;;;;7.11;100.00;101352.97;4990721;28;20113;-70
2024/02/20 08:33:35;;;;;;;12.23;7.43;;;;;;;7.00;100.00;101321.44;4991081;28;20053;-71
2024/02/20 08:36:01;;;;;;;10.30;6.57;;;;;;;6.83;100.00;101304.97;4991399;28;20130;-70
2024/02/20 08:38:26;;;;;;;10.25;7.40;;;;;;;7.07;100.00;101351.88;4991164;28;20026;-70
2024/02/20 08:40:52;;;;;;;8.95;6.05;;;;;;;7.00;100.00;101349.69;4975942;28;20018;-71
2024/02/20 08:43:18;;;;;;;8.05;5.00;;;;;;;6.99;100.00;101352.16;4990805;28;20596;-70
2024/02/20 08:45:44;;;;;;;9.00;4.82;;;;;;;6.87;100.00;101335.16;4989212;28;20030;-71
2024/02/20 08:48:09;;;;;;;8.15;5.60;;;;;;;6.96;100.00;101364.00;4990689;28;20137;-70
2024/02/20 08:50:35;;;;;;;8.10;5.45;;;;;;;6.66;100.00;101324.38;4990451;28;20031;-70
2024/02/20 08:53:06;;;;;;;8.73;5.07;;;;;;;6.90;100.00;101362.72;4990561;28;20109;-70
2024/02/20 08:55:32;;;;;;;9.80;4.95;;;;;;;6.93;100.00;101342.41;4986595;28;20402;-70
2024/02/20 08:57:58;;;;;;;10.52;4.78;;;;;;;6.99;100.00;101358.22;4990999;28;20034;-71
2024/02/20 09:00:23;;;;;;;8.32;5.28;;;;;;;6.97;100.00;101363.22;4990239;28;20034;-71
2024/02/20 09:02:49;;;;;;;8.90;4.85;;;;;;;6.94;100.00;101362.13;4991448;28;20041;-70
2024/02/20 09:05:15;;;;;;;6.85;4.78;;;;;;;6.95;100.00;101359.69;4990358;28;20080;-70
2024/02/20 09:07:41;;;;;;;9.27;5.65;;;;;;;7.04;100.00;101361.03;4990668;28;20048;-70
2024/02/20 09:10:08;;;;;;;9.02;5.10;;;;;;;7.09;100.00;101362.22;4990329;28;20034;-72
2024/02/20 09:12:34;;;;;;;11.15;6.57;;;;;;;7.18;100.00;101362.84;4990484;28;20124;-70
2024/02/20 09:15:01;;;;;;;12.70;6.40;;;;;;;6.70;100.00;101276.72;4979701;28;20076;-71
2024/02/20 09:17:27;;;;;;;13.45;8.40;;;;;;;7.23;100.00;101366.59;4990282;28;20057;-70
2024/02/20 09:19:53;;;;;;;12.13;6.82;;;;;;;7.21;100.00;101365.59;4990238;28;20433;-71
2024/02/20 09:22:19;;;;;;;13.63;8.43;;;;;;;7.13;100.00;101349.69;4979162;28;20034;-72
2024/02/20 09:24:45;;;;;;;10.23;6.25;;;;;;;7.29;100.00;101363.56;4965071;28;20514;-70
2024/02/20 09:27:11;;;;;;;8.50;5.03;;;;;;;7.11;100.00;101360.66;4990351;28;20084;-70
2024/02/20 09:29:37;;;;;;;7.25;5.05;;;;;;;7.02;100.00;101360.09;4989547;28;20049;-71
2024/02/20 09:32:03;;;;;;;8.90;5.53;;;;;;;7.05;100.00;101360.25;4989759;28;20034;-72
2024/02/20 09:34:29;;;;;;;16.45;6.97;;;;;;;7.04;100.00;101346.56;4989992;28;20105;-69
2024/02/20 09:36:56;;;;;;;8.85;6.68;;;;;;;7.23;100.00;101356.34;4990879;28;20474;-70
2024/02/20 09:39:22;;;;;;;7.90;5.68;;;;;;;7.15;100.00;101336.97;4989908;28;20401;-70
2024/02/20 09:41:51;;;;;;;8.38;5.32;;;;;;;7.37;100.00;101358.91;4989929;28;20041;-70
2024/02/20 09:44:18;;;;;;;11.20;6.80;;;;;;;6.93;100.00;101283.34;4989597;28;20848;-70
2024/02/20 09:46:54;;;;;;;6.55;4.90;;;;;;;7.39;100.00;101353.06;4990604;28;20507;-70
2024/02/20 09:49:21;;;;;;;6.88;4.80;;;;;;;7.49;100.00;101354.56;4989899;28;20030;-71
2024/02/20 09:51:47;;;;;;;8.10;4.72;;;;;;;7.43;100.00;101354.16;4989769;28;20456;-70
2024/02/20 09:54:16;;;;;;;8.45;5.50;;;;;;;7.32;100.00;101325.22;4989984;28;20121;-70
2024/02/20 09:56:45;;;;;;;9.15;4.90;;;;;;;7.33;100.00;101349.19;4989468;28;20049;-70
2024/02/20 09:59:11;;;;;;;7.68;5.53;;;;;;;6.62;100.00;101250.56;4989543;28;20031;-69
2024/02/20 10:01:38;;;;;;;10.10;6.38;;;;;;;7.29;100.00;101331.03;4989514;28;20097;-70
2024/02/20 10:04:08;;;;;;;10.10;6.18;;;;;;;7.42;100.00;101334.41;4973890;28;20034;-70
2024/02/20 10:06:34;;;;;;;8.48;4.90;;;;;;;7.43;100.00;101315.63;4990412;28;20518;-70
2024/02/20 10:09:01;;;;;;;12.27;5.07;;;;;;;7.56;100.00;101327.56;4989425;28;20066;-70
2024/02/20 10:11:26;;;;;;;7.28;5.05;;;;;;;7.64;100.00;101328.03;4989182;28;20041;-71
2024/02/20 10:13:55;;;;;;;8.00;5.47;;;;;;;7.78;100.00;101325.53;4973266;28;20039;-70
2024/02/20 10:16:21;;;;;;;14.10;6.75;;;;;;;7.88;100.00;101329.56;4984988;28;20170;-71
2024/02/20 10:19:04;;;;;;;13.25;7.60;;;;;;;7.76;100.00;101295.38;4989647;28;20541;-71
2024/02/20 10:21:30;;;;;;;8.35;5.65;;;;;;;7.92;100.00;101323.84;4989124;28;20042;-70
2024/02/20 10:24:07;;;;;;;9.30;5.53;;;;;;;7.95;100.00;101312.84;4948358;28;20085;-70
2024/02/20 10:26:34;;;;;;;9.63;4.90;;;;;;;7.89;100.00;101317.59;4978588;28;20544;-70
2024/02/20 10:29:04;;;;;;;8.20;5.00;;;;;;;7.88;100.00;101311.56;4989744;28;20117;-70
2024/02/20 10:31:31;;;;;;;9.73;5.20;;;;;;;7.86;100.00;101300.31;4989735;28;20498;-70
2024/02/20 10:33:57;;;;;;;9.23;5.25;;;;;;;7.97;100.00;101310.34;4989616;28;20058;-70
2024/02/20 10:36:24;;;;;;;8.07;5.47;;;;;;;7.97;100.00;101306.09;4989640;28;20026;-71
2024/02/20 10:38:51;;;;;;;7.85;5.75;;;;;;;8.06;100.00;101316.97;4983054;28;20045;-71
2024/02/20 10:41:19;;;;;;;8.35;5.40;;;;;;;7.68;100.00;101246.09;4981995;28;20026;-71
2024/02/20 10:43:48;;;;;;;8.68;5.47;;;;;;;7.61;100.00;101226.84;4989822;28;20113;-71
2024/02/20 10:46:14;;;;;;;10.40;6.15;;;;;;;8.07;100.00;101303.31;4989621;28;20502;-70
2024/02/20 10:48:45;;;;;;;11.75;6.50;;;;;;;7.91;100.00;101252.63;4989870;28;20046;-70
2024/02/20 10:51:13;;;;;;;8.43;5.47;;;;;;;8.17;100.00;101296.13;4985633;28;20030;-71
2024/02/20 10:53:39;;;;;;;9.68;5.30;;;;;;;8.15;100.00;101293.47;4989334;28;20037;-73
2024/02/20 10:56:08;;;;;;;8.70;5.75;;;;;;;8.08;100.00;101293.91;4990243;28;20070;-71
2024/02/20 10:58:39;;;;;;;7.82;5.35;;;;;;;7.62;100.00;101212.28;4989772;28;20181;-70
2024/02/20 11:01:13;;;;;;;9.88;6.40;;;;;;;7.84;100.00;101262.44;4989686;28;20030;-70
2024/02/20 11:03:40;;;;;;;11.73;6.13;;;;;;;8.07;100.00;101276.69;4989384;28;20034;-70
2024/02/20 11:06:08;;;;;;;9.60;6.03;;;;;;;8.23;100.00;101281.06;4993080;28;20106;-70
2024/02/20 11:08:33;;;;;;;11.63;6.50;;;;;;;8.12;100.00;101277.84;4993396;28;20027;-70
2024/02/20 11:11:15;;;;;;;10.65;6.53;;;;;;;7.99;100.00;101244.47;4992815;28;20018;-70
2024/02/20 11:13:42;;;;;;;9.15;6.20;;;;;;;8.25;100.00;101269.19;4992697;28;20039;-70
2024/02/20 11:16:17;;;;;;;9.32;5.82;;;;;;;8.26;100.00;101273.50;4993261;28;20518;-71